createdAt,value
2023-05-18T00:04:26.916Z,99650.06
2023-05-18T00:09:33.429Z,99651.28
2023-05-18T00:14:41.183Z,99661.75
2023-05-18T00:19:47.003Z,99668.34
2023-05-18T00:24:54.578Z,99670.47
2023-05-18T00:30:02.786Z,99670.28
2023-05-18T00:35:09.218Z,99674.63
2023-05-18T00:40:16.021Z,99680.47
2023-05-18T00:45:23.917Z,99674.41
2023-05-18T00:50:29.460Z,99682.41
2023-05-18T00:55:36.961Z,99685.59
2023-05-18T01:00:44.891Z,99692.31
2023-05-18T01:05:56.028Z,99687.25
2023-05-18T01:11:24.992Z,99693.13
2023-05-18T01:16:41.962Z,99688.34
2023-05-18T01:22:01.108Z,99689.13
2023-05-18T01:27:12.062Z,99698.16
2023-05-18T01:32:22.217Z,99698.16
2023-05-18T01:37:31.629Z,99705.06
2023-05-18T01:42:47.638Z,99703.22
2023-05-18T01:47:57.040Z,99697.63
2023-05-18T01:53:09.342Z,99703.47
2023-05-18T01:58:17.726Z,99698.97
2023-05-18T02:03:24.940Z,99702.16
2023-05-18T02:08:30.028Z,99698.09
2023-05-18T02:13:40.851Z,99702.41
2023-05-18T02:18:46.136Z,99706.22
2023-05-18T02:23:52.407Z,99724.50
2023-05-18T02:29:00.180Z,99719.34
2023-05-18T02:34:05.293Z,99721.63
2023-05-18T02:39:10.683Z,99718.66
2023-05-18T02:44:18.503Z,99721.28
2023-05-18T02:49:23.736Z,99725.28
2023-05-18T02:54:30.124Z,99738.00
2023-05-18T02:59:38.869Z,99733.13
2023-05-18T03:04:48.129Z,99747.09
2023-05-18T03:09:54.490Z,99740.91
2023-05-18T03:15:06.001Z,99741.22
2023-05-18T03:20:14.974Z,99746.47
2023-05-18T03:25:20.843Z,99749.41
2023-05-18T03:30:28.786Z,99758.50
2023-05-18T03:35:34.305Z,99756.56
2023-05-18T03:40:40.118Z,99765.78
2023-05-18T03:45:47.899Z,99757.97
2023-05-18T03:50:53.264Z,99772.25
2023-05-18T03:55:58.726Z,99775.59
2023-05-18T04:01:08.412Z,99761.88
2023-05-18T04:06:13.613Z,99770.81
2023-05-18T04:11:19.675Z,99772.59
2023-05-18T04:16:27.793Z,99781.53
2023-05-18T04:21:35.572Z,99786.22
2023-05-18T04:26:40.659Z,99778.47
2023-05-18T04:31:50.407Z,99790.25
2023-05-18T04:36:58.816Z,99777.22
2023-05-18T04:42:04.821Z,99786.47
2023-05-18T04:47:13.115Z,99781.56
2023-05-18T04:52:26.276Z,99786.53
2023-05-18T04:57:33.269Z,99779.56
2023-05-18T05:02:45.398Z,99793.63
2023-05-18T05:07:52.688Z,99792.53
2023-05-18T05:12:58.211Z,99778.03
2023-05-18T05:18:06.055Z,99791.28
2023-05-18T05:23:11.478Z,99794.41
2023-05-18T05:28:19.562Z,99790.16
2023-05-18T05:33:29.673Z,99797.56
2023-05-18T05:38:35.168Z,99788.84
2023-05-18T05:43:40.932Z,99785.63
2023-05-18T05:48:48.840Z,99793.25
2023-05-18T05:53:54.042Z,99789.00
2023-05-18T05:59:00.153Z,99801.09
2023-05-18T06:04:11.091Z,99801.50
2023-05-18T06:09:17.551Z,99803.97
2023-05-18T06:14:23.128Z,99811.41
2023-05-18T06:19:32.349Z,99808.34
2023-05-18T06:24:37.982Z,99813.56
2023-05-18T06:30:01.930Z,99817.75
2023-05-18T06:35:35.753Z,99807.50
2023-05-18T06:40:56.481Z,99821.09
2023-05-18T06:46:10.265Z,99822.00
2023-05-18T06:51:22.298Z,99826.44
2023-05-18T07:01:58.917Z,99820.50
2023-05-18T07:07:40.993Z,99841.03
2023-05-18T07:13:06.170Z,99851.09
2023-05-18T07:18:45.636Z,99841.63
2023-05-18T07:24:47.128Z,99819.16
2023-05-18T07:30:20.723Z,99832.66
2023-05-18T07:35:34.030Z,99826.16
2023-05-18T07:47:16.518Z,99828.91
2023-05-18T07:52:25.312Z,99826.22
2023-05-18T08:08:40.897Z,99837.50
2023-05-18T08:13:52.675Z,99819.66
2023-05-18T08:19:03.065Z,99831.91
2023-05-18T08:24:25.254Z,99833.00
2023-05-18T08:29:34.156Z,99812.09
2023-05-18T08:34:59.246Z,99821.50
2023-05-18T08:40:10.040Z,99803.22
2023-05-18T08:45:23.834Z,99816.47
2023-05-18T08:50:46.040Z,99820.41
2023-05-18T08:55:55.160Z,99811.91
2023-05-18T09:01:03.823Z,99801.38
2023-05-18T09:06:14.229Z,99813.34
2023-05-18T09:11:25.384Z,99802.69
2023-05-18T09:16:33.125Z,99812.59
2023-05-18T09:21:42.637Z,99815.66
2023-05-18T09:26:48.902Z,99790.63
2023-05-18T09:31:59.120Z,99813.63
2023-05-18T09:37:08.198Z,99788.66
2023-05-18T09:42:13.780Z,99795.03
2023-05-18T09:47:22.505Z,99805.84
2023-05-18T09:52:31.048Z,99784.53
2023-05-18T09:57:44.487Z,99788.81
2023-05-18T10:02:56.400Z,99805.22
2023-05-18T10:08:04.936Z,99803.06
2023-05-18T10:13:11.183Z,99784.44
2023-05-18T10:23:43.587Z,99781.44
2023-05-18T10:28:55.266Z,99794.72
2023-05-18T10:34:02.193Z,99774.50
2023-05-18T10:39:13.344Z,99772.66
2023-05-18T10:44:20.265Z,99784.34
2023-05-18T10:49:30.739Z,99767.13
2023-05-18T10:54:58.760Z,99776.25
2023-05-18T11:05:48.696Z,99757.31
2023-05-18T11:11:12.674Z,99777.56
2023-05-18T11:16:46.262Z,99780.69
2023-05-18T11:28:41.853Z,99743.13
2023-05-18T11:39:58.226Z,99757.09
2023-05-18T12:02:17.063Z,99726.91
2023-05-18T12:07:28.729Z,99747.88
2023-05-18T12:18:08.665Z,99734.06
2023-05-18T12:23:18.847Z,99738.09
2023-05-18T12:39:29.682Z,99734.59
2023-05-18T12:44:38.718Z,99737.59
2023-05-18T12:49:52.762Z,99727.72
2023-05-18T12:55:01.825Z,99714.72
2023-05-18T13:00:16.527Z,99739.63
2023-05-18T13:05:34.261Z,99721.19
2023-05-18T13:11:11.974Z,99704.59
2023-05-18T13:17:14.432Z,99703.03
2023-05-18T13:22:22.875Z,99715.00
2023-05-18T13:33:19.998Z,99707.50
2023-05-18T13:38:27.035Z,99713.06
2023-05-18T13:49:27.622Z,99720.72
2023-05-18T13:54:46.418Z,99719.06
2023-05-18T14:11:27.746Z,99703.41
2023-05-18T14:16:33.836Z,99686.59
2023-05-18T14:21:39.627Z,99684.66
2023-05-18T14:27:01.720Z,99701.22
2023-05-18T14:32:08.190Z,99683.16
2023-05-18T14:59:35.659Z,99666.31
2023-05-18T15:10:23.653Z,99666.88
2023-05-18T15:15:29.647Z,99662.22
2023-05-18T15:26:11.740Z,99668.56
2023-05-18T15:31:17.983Z,99651.66
2023-05-18T15:36:46.568Z,99657.41
2023-05-18T15:41:55.375Z,99664.16
2023-05-18T15:52:48.380Z,99639.53
2023-05-18T15:58:03.531Z,99643.00
2023-05-18T16:03:33.597Z,99649.28
2023-05-18T16:08:41.454Z,99655.28
2023-05-18T16:13:54.184Z,99663.91
2023-05-18T16:19:00.916Z,99656.94
2023-05-18T16:24:06.516Z,99648.25
2023-05-18T16:29:14.650Z,99652.59
2023-05-18T16:34:21.351Z,99657.38
2023-05-18T16:39:27.382Z,99655.53
2023-05-18T16:44:36.423Z,99651.63
2023-05-18T16:49:44.175Z,99647.19
2023-05-18T16:54:51.883Z,99652.00
2023-05-18T17:00:01.253Z,99651.09
2023-05-18T17:05:06.935Z,99646.88
2023-05-18T17:10:13.475Z,99654.81
2023-05-18T17:15:21.500Z,99645.34
2023-05-18T17:20:28.143Z,99643.44
2023-05-18T17:25:33.382Z,99652.94
2023-05-18T17:30:41.245Z,99655.72
2023-05-18T17:35:46.497Z,99656.91
2023-05-18T17:40:51.713Z,99656.50
2023-05-18T17:46:03.600Z,99655.03
2023-05-18T17:51:08.994Z,99648.41
2023-05-18T17:56:14.444Z,99651.22
2023-05-18T18:01:25.175Z,99646.00
2023-05-18T18:06:31.792Z,99651.75
2023-05-18T18:11:38.638Z,99659.81
2023-05-18T18:16:46.795Z,99650.13
2023-05-18T18:21:55.505Z,99648.97
2023-05-18T18:27:04.996Z,99652.75
2023-05-18T18:32:13.256Z,99650.66
2023-05-18T18:37:18.695Z,99654.75
2023-05-18T18:42:23.904Z,99666.84
2023-05-18T18:47:31.887Z,99668.34
2023-05-18T18:52:40.715Z,99663.78
2023-05-18T18:57:53.650Z,99668.66
2023-05-18T19:03:06.212Z,99667.91
2023-05-18T19:08:11.666Z,99664.06
2023-05-18T19:13:16.812Z,99689.81
2023-05-18T19:18:26.068Z,99698.72
2023-05-18T19:23:31.309Z,99698.59
2023-05-18T19:28:36.634Z,99697.84
2023-05-18T19:33:45.769Z,99696.63
2023-05-18T19:38:53.214Z,99711.41
2023-05-18T19:44:00.534Z,99719.25
2023-05-18T19:49:10.310Z,99713.38
2023-05-18T19:54:15.516Z,99704.44
2023-05-18T19:59:21.078Z,99713.59
2023-05-18T20:04:31.338Z,99712.38
2023-05-18T20:09:37.170Z,99721.31
2023-05-18T20:14:46.060Z,99715.16
2023-05-18T20:19:56.248Z,99709.13
2023-05-18T20:25:06.028Z,99711.97
2023-05-18T20:30:12.388Z,99711.88
2023-05-18T20:35:21.205Z,99715.53
2023-05-18T20:40:26.693Z,99726.25
2023-05-18T20:45:32.707Z,99729.16
2023-05-18T20:50:40.771Z,99724.44
2023-05-18T20:55:48.326Z,99723.59
2023-05-18T21:00:55.801Z,99727.16
2023-05-18T21:06:19.483Z,99732.28
2023-05-18T21:11:25.936Z,99715.28
2023-05-18T21:16:31.286Z,99731.47
2023-05-18T21:21:40.809Z,99725.91
2023-05-18T21:26:46.404Z,99722.34
2023-05-18T21:31:51.871Z,99718.19
2023-05-18T21:37:05.374Z,99723.31
2023-05-18T21:42:14.462Z,99714.56
2023-05-18T21:47:28.404Z,99714.41
2023-05-18T21:52:40.280Z,99722.22
2023-05-18T21:57:46.289Z,99720.84
2023-05-18T22:02:51.559Z,99715.16
2023-05-18T22:08:02.429Z,99713.25
2023-05-18T22:13:07.556Z,99718.38
2023-05-18T22:18:15.274Z,99703.25
2023-05-18T22:23:23.162Z,99703.31
2023-05-18T22:28:28.291Z,99704.06
2023-05-18T22:33:35.274Z,99703.91
2023-05-18T22:38:44.456Z,99697.69
2023-05-18T22:43:49.721Z,99693.16
2023-05-18T22:48:56.088Z,99698.06
2023-05-18T22:54:04.406Z,99695.38
2023-05-18T22:59:11.750Z,99685.94
2023-05-18T23:04:20.015Z,99682.00
2023-05-18T23:09:30.767Z,99676.84
2023-05-18T23:14:36.264Z,99681.97
2023-05-18T23:19:43.968Z,99685.78
2023-05-18T23:24:51.742Z,99683.06
2023-05-18T23:29:57.242Z,99684.84
2023-05-18T23:35:06.942Z,99694.53
2023-05-18T23:40:16.907Z,99682.38
2023-05-18T23:45:24.028Z,99679.41
2023-05-18T23:50:30.382Z,99681.13
2023-05-18T23:55:40.043Z,99681.91
